createdAt,value
2023-05-15T00:01:42.415Z,8.10
2023-05-15T00:04:10.382Z,8.02
2023-05-15T00:06:39.679Z,7.22
2023-05-15T00:10:03.443Z,7.80
2023-05-15T00:12:56.564Z,8.05
2023-05-15T00:15:25.700Z,7.95
2023-05-15T00:17:55.240Z,7.38
2023-05-15T00:20:22.853Z,6.90
2023-05-15T00:22:50.637Z,8.77
2023-05-15T00:25:20.275Z,8.07
2023-05-15T00:27:47.926Z,7.53
2023-05-15T00:30:16.196Z,7.40
2023-05-15T00:32:44.639Z,7.55
2023-05-15T00:35:13.286Z,7.25
2023-05-15T00:37:41.175Z,7.35
2023-05-15T00:40:11.137Z,7.05
2023-05-15T00:42:40.772Z,6.88
2023-05-15T00:45:11.419Z,7.78
2023-05-15T00:47:42.932Z,6.90
2023-05-15T00:50:12.876Z,7.85
2023-05-15T00:53:36.817Z,7.82
2023-05-15T00:56:25.896Z,6.80
2023-05-15T00:59:13.907Z,7.28
2023-05-15T01:01:41.786Z,7.30
2023-05-15T01:04:10.509Z,7.43
2023-05-15T01:06:38.421Z,6.78
2023-05-15T01:09:08.497Z,7.00
2023-05-15T01:11:38.446Z,6.85
2023-05-15T01:14:07.528Z,7.13
2023-05-15T01:16:36.538Z,6.47
2023-05-15T01:19:05.732Z,6.63
2023-05-15T01:21:37.686Z,6.60
2023-05-15T01:24:42.811Z,6.60
2023-05-15T01:27:13.722Z,6.40
2023-05-15T01:30:08.718Z,6.45
2023-05-15T01:32:36.774Z,8.27
2023-05-15T01:35:20.804Z,6.93
2023-05-15T01:37:54.992Z,6.80
2023-05-15T01:40:26.802Z,6.40
2023-05-15T01:42:59.156Z,6.10
2023-05-15T01:45:29.139Z,6.10
2023-05-15T01:47:59.586Z,5.90
2023-05-15T01:50:31.195Z,6.45
2023-05-15T01:53:02.858Z,7.00
2023-05-15T01:55:31.449Z,6.00
2023-05-15T01:58:02.568Z,6.45
2023-05-15T02:00:33.065Z,6.45
2023-05-15T02:03:02.228Z,6.40
2023-05-15T02:05:33.187Z,6.00
2023-05-15T02:08:04.037Z,6.57
2023-05-15T02:10:33.608Z,7.07
2023-05-15T02:13:02.594Z,6.47
2023-05-15T02:15:30.386Z,5.47
2023-05-15T02:17:58.197Z,6.35
2023-05-15T02:20:26.129Z,6.68
2023-05-15T02:22:57.508Z,6.10
2023-05-15T02:25:41.495Z,5.88
2023-05-15T02:28:21.831Z,6.20
2023-05-15T02:30:58.297Z,5.43
2023-05-15T02:33:40.397Z,6.00
2023-05-15T02:36:12.230Z,6.00
2023-05-15T02:38:48.438Z,6.13
2023-05-15T02:41:17.506Z,5.90
2023-05-15T02:43:49.254Z,5.63
2023-05-15T02:46:18.051Z,6.70
2023-05-15T02:48:50.062Z,6.18
2023-05-15T02:51:17.576Z,5.88
2023-05-15T02:53:45.297Z,6.57
2023-05-15T02:56:12.729Z,6.38
2023-05-15T02:58:41.144Z,6.18
2023-05-15T03:01:10.826Z,5.80
2023-05-15T03:03:38.841Z,5.40
2023-05-15T03:06:07.499Z,5.22
2023-05-15T03:08:35.143Z,5.38
2023-05-15T03:11:02.569Z,6.35
2023-05-15T03:13:32.825Z,5.68
2023-05-15T03:16:00.225Z,6.00
2023-05-15T03:18:29.607Z,5.68
2023-05-15T03:20:57.977Z,5.75
2023-05-15T03:23:27.203Z,6.00
2023-05-15T03:25:54.670Z,6.55
2023-05-15T03:28:22.338Z,6.75
2023-05-15T03:30:49.630Z,5.93
2023-05-15T03:33:19.760Z,5.57
2023-05-15T03:35:47.154Z,5.90
2023-05-15T03:38:15.698Z,5.95
2023-05-15T03:40:42.983Z,5.85
2023-05-15T03:43:11.746Z,6.45
2023-05-15T03:45:39.995Z,5.65
2023-05-15T03:48:10.213Z,6.65
2023-05-15T03:50:37.689Z,6.70
2023-05-15T03:53:06.403Z,5.95
2023-05-15T03:55:37.294Z,5.43
2023-05-15T03:58:06.737Z,6.03
2023-05-15T04:00:34.692Z,5.70
2023-05-15T04:03:02.698Z,6.07
2023-05-15T04:05:32.157Z,6.00
2023-05-15T04:08:01.366Z,6.22
2023-05-15T04:10:29.583Z,6.35
2023-05-15T04:12:57.269Z,12.30
2023-05-15T04:15:27.372Z,6.55
2023-05-15T04:17:55.659Z,6.32
2023-05-15T04:20:25.095Z,6.18
2023-05-15T04:22:54.566Z,6.25
2023-05-15T04:25:22.909Z,6.22
2023-05-15T04:27:50.727Z,6.18
2023-05-15T04:30:18.263Z,6.18
2023-05-15T04:32:46.174Z,6.43
2023-05-15T04:35:14.404Z,7.32
2023-05-15T04:37:45.696Z,6.85
2023-05-15T04:40:16.636Z,6.78
2023-05-15T04:42:45.875Z,6.80
2023-05-15T04:45:15.033Z,6.47
2023-05-15T04:47:42.790Z,6.32
2023-05-15T04:50:10.579Z,6.85
2023-05-15T04:52:39.045Z,6.82
2023-05-15T04:55:06.946Z,6.80
2023-05-15T04:57:34.729Z,6.90
2023-05-15T05:00:02.661Z,7.20
2023-05-15T05:02:37.402Z,6.85
2023-05-15T05:05:07.384Z,6.43
2023-05-15T05:07:35.629Z,7.40
2023-05-15T05:10:06.406Z,6.88
2023-05-15T05:12:34.297Z,6.57
2023-05-15T05:15:02.411Z,7.40
2023-05-15T05:17:32.254Z,7.88
2023-05-15T05:20:01.068Z,8.00
2023-05-15T05:22:32.127Z,7.55
2023-05-15T05:25:04.840Z,7.78
2023-05-15T05:27:32.837Z,7.82
2023-05-15T05:30:01.858Z,7.15
2023-05-15T05:32:29.612Z,7.30
2023-05-15T05:34:59.127Z,6.63
2023-05-15T05:37:26.900Z,7.82
2023-05-15T05:39:55.679Z,7.05
2023-05-15T05:42:23.832Z,7.68
2023-05-15T05:45:11.707Z,7.68
2023-05-15T05:47:39.461Z,7.68
2023-05-15T05:50:07.693Z,6.82
2023-05-15T05:52:36.745Z,6.70
2023-05-15T05:55:08.246Z,6.78
2023-05-15T05:57:38.856Z,7.20
2023-05-15T06:00:12.274Z,7.47
2023-05-15T06:02:41.946Z,6.78
2023-05-15T06:05:20.089Z,7.50
2023-05-15T06:07:49.293Z,7.70
2023-05-15T06:13:17.895Z,7.53
2023-05-15T06:15:50.247Z,7.68
2023-05-15T06:18:55.057Z,7.47
2023-05-15T06:21:35.808Z,6.97
2023-05-15T06:24:31.311Z,7.20
2023-05-15T06:27:09.259Z,6.65
2023-05-15T06:29:46.835Z,7.50
2023-05-15T06:32:46.346Z,6.15
2023-05-15T06:35:42.554Z,6.97
2023-05-15T06:38:16.164Z,6.50
2023-05-15T06:41:25.877Z,6.53
2023-05-15T06:44:00.059Z,7.78
2023-05-15T06:46:41.769Z,7.28
2023-05-15T06:49:09.699Z,8.73
2023-05-15T06:51:51.564Z,11.75
2023-05-15T06:54:20.752Z,8.50
2023-05-15T06:56:53.753Z,7.20
2023-05-15T06:59:25.195Z,7.47
2023-05-15T07:01:58.988Z,7.75
2023-05-15T07:04:34.082Z,7.55
2023-05-15T07:07:06.505Z,7.43
2023-05-15T07:09:37.014Z,7.97
2023-05-15T07:12:07.677Z,8.15
2023-05-15T07:14:45.446Z,7.47
2023-05-15T07:17:16.718Z,7.78
2023-05-15T07:20:27.568Z,8.15
2023-05-15T07:23:26.633Z,8.02
2023-05-15T07:26:11.816Z,7.38
2023-05-15T07:31:43.721Z,9.95
2023-05-15T07:34:15.829Z,8.40
2023-05-15T07:36:49.682Z,8.50
2023-05-15T07:39:22.913Z,8.77
2023-05-15T07:42:08.951Z,9.13
2023-05-15T07:44:40.667Z,8.43
2023-05-15T07:47:10.217Z,8.90
2023-05-15T07:49:43.014Z,8.13
2023-05-15T07:52:12.045Z,8.48
2023-05-15T07:54:46.701Z,7.78
2023-05-15T07:57:17.776Z,7.30
2023-05-15T07:59:50.278Z,7.85
2023-05-15T08:02:20.053Z,6.88
2023-05-15T08:04:59.280Z,7.70
2023-05-15T08:07:37.579Z,8.13
2023-05-15T08:10:30.676Z,7.78
2023-05-15T08:12:59.306Z,7.20
2023-05-15T08:15:30.500Z,7.45
2023-05-15T08:18:00.816Z,8.00
2023-05-15T08:20:30.925Z,8.00
2023-05-15T08:23:02.479Z,7.10
2023-05-15T08:25:35.780Z,8.15
2023-05-15T08:28:07.116Z,9.02
2023-05-15T08:30:40.400Z,9.00
2023-05-15T08:33:10.122Z,8.27
2023-05-15T08:35:39.753Z,8.02
2023-05-15T08:38:10.364Z,8.65
2023-05-15T08:40:42.400Z,9.13
2023-05-15T08:43:18.952Z,9.60
2023-05-15T08:45:54.872Z,8.73
2023-05-15T08:48:33.380Z,8.25
2023-05-15T08:51:11.352Z,8.55
2023-05-15T08:53:44.650Z,9.77
2023-05-15T08:56:13.250Z,9.88
2023-05-15T08:58:46.907Z,10.15
2023-05-15T09:01:17.485Z,9.48
2023-05-15T09:03:50.143Z,9.52
2023-05-15T09:06:47.272Z,9.45
2023-05-15T09:09:20.321Z,9.50
2023-05-15T09:11:50.830Z,8.95
2023-05-15T09:14:25.726Z,10.18
2023-05-15T09:16:59.633Z,10.60
2023-05-15T09:19:35.558Z,10.60
2023-05-15T09:22:24.475Z,9.68
2023-05-15T09:24:54.204Z,10.27
2023-05-15T09:27:26.875Z,9.50
2023-05-15T09:29:56.723Z,10.32
2023-05-15T09:32:28.570Z,9.75
2023-05-15T09:34:57.506Z,9.65
2023-05-15T09:37:32.194Z,9.07
2023-05-15T09:40:12.250Z,9.73
2023-05-15T09:42:41.485Z,9.75
2023-05-15T09:45:19.110Z,10.18
2023-05-15T09:47:47.588Z,10.23
2023-05-15T09:50:25.105Z,11.15
2023-05-15T09:52:54.404Z,9.90
2023-05-15T09:55:25.559Z,10.55
2023-05-15T09:58:13.770Z,9.60
2023-05-15T10:00:48.541Z,11.77
2023-05-15T10:03:27.502Z,10.68
2023-05-15T10:06:03.733Z,10.10
2023-05-15T10:08:32.226Z,10.05
2023-05-15T10:11:03.809Z,8.98
2023-05-15T10:13:36.016Z,10.20
2023-05-15T10:16:06.347Z,9.85
2023-05-15T10:18:37.625Z,9.48
2023-05-15T10:21:11.164Z,9.98
2023-05-15T10:23:46.855Z,9.55
2023-05-15T10:26:43.400Z,9.57
2023-05-15T10:29:15.008Z,9.85
2023-05-15T10:31:43.591Z,9.40
2023-05-15T10:34:16.238Z,8.55
2023-05-15T10:36:48.444Z,9.13
2023-05-15T10:39:22.849Z,7.68
2023-05-15T10:41:55.286Z,8.02
2023-05-15T10:44:26.626Z,8.68
2023-05-15T10:46:56.716Z,8.10
2023-05-15T10:49:26.220Z,9.02
2023-05-15T10:51:54.222Z,8.10
2023-05-15T10:54:24.457Z,8.13
2023-05-15T10:56:58.376Z,8.20
2023-05-15T10:59:34.252Z,7.97
2023-05-15T11:02:23.093Z,7.78
2023-05-15T11:05:02.568Z,8.32
2023-05-15T11:07:31.833Z,8.10
2023-05-15T11:09:59.627Z,8.73
2023-05-15T11:13:05.280Z,7.90
2023-05-15T11:18:14.942Z,7.70
2023-05-15T11:20:56.537Z,7.53
2023-05-15T11:23:28.694Z,7.72
2023-05-15T11:26:03.945Z,6.82
2023-05-15T11:28:43.866Z,7.25
2023-05-15T11:31:12.821Z,6.80
2023-05-15T11:33:45.768Z,7.63
2023-05-15T11:36:19.456Z,7.03
2023-05-15T11:38:51.500Z,5.93
2023-05-15T11:41:30.643Z,6.20
2023-05-15T11:44:03.329Z,6.30
2023-05-15T11:46:35.102Z,7.22
2023-05-15T11:49:09.575Z,7.38
2023-05-15T11:51:43.422Z,6.85
2023-05-15T11:54:14.841Z,6.43
2023-05-15T11:56:47.273Z,6.60
2023-05-15T11:59:28.836Z,6.90
2023-05-15T12:02:00.150Z,6.38
2023-05-15T12:04:30.515Z,6.80
2023-05-15T12:07:06.031Z,6.20
2023-05-15T12:09:36.972Z,6.40
2023-05-15T12:12:09.447Z,6.65
2023-05-15T12:14:42.839Z,6.43
2023-05-15T12:17:11.749Z,6.78
2023-05-15T12:19:45.638Z,6.68
2023-05-15T12:22:19.171Z,6.63
2023-05-15T12:24:47.234Z,6.95
2023-05-15T12:27:18.262Z,7.03
2023-05-15T12:29:46.698Z,6.32
2023-05-15T12:32:14.255Z,6.13
2023-05-15T12:34:42.197Z,7.07
2023-05-15T12:37:13.846Z,7.63
2023-05-15T12:39:57.293Z,6.65
2023-05-15T12:42:31.363Z,7.10
2023-05-15T12:45:00.634Z,8.40
2023-05-15T12:47:31.754Z,7.05
2023-05-15T12:49:59.968Z,7.82
2023-05-15T12:52:32.116Z,7.57
2023-05-15T12:55:04.084Z,8.10
2023-05-15T12:57:33.004Z,8.15
2023-05-15T13:00:02.841Z,7.90
2023-05-15T13:02:36.197Z,7.97
2023-05-15T13:05:07.995Z,7.85
2023-05-15T13:07:36.919Z,8.43
2023-05-15T13:10:10.625Z,7.63
2023-05-15T13:12:45.082Z,8.18
2023-05-15T13:15:40.304Z,9.13
2023-05-15T13:18:18.301Z,6.72
2023-05-15T13:20:49.729Z,7.00
2023-05-15T13:23:27.942Z,7.93
2023-05-15T13:25:58.637Z,8.25
2023-05-15T13:28:28.162Z,7.25
2023-05-15T13:30:56.138Z,8.23
2023-05-15T13:33:23.568Z,7.40
2023-05-15T13:35:54.284Z,8.50
2023-05-15T13:38:22.852Z,8.25
2023-05-15T13:40:50.932Z,7.93
2023-05-15T13:43:26.657Z,8.25
2023-05-15T13:45:56.130Z,8.65
2023-05-15T13:48:25.118Z,7.85
2023-05-15T13:50:57.636Z,8.60
2023-05-15T13:53:29.775Z,7.93
2023-05-15T13:56:11.894Z,7.07
2023-05-15T13:58:43.848Z,9.88
2023-05-15T14:01:19.352Z,7.88
2023-05-15T14:03:48.473Z,8.48
2023-05-15T14:06:17.994Z,7.88
2023-05-15T14:08:45.684Z,8.38
2023-05-15T14:11:15.601Z,8.57
2023-05-15T14:13:47.630Z,9.27
2023-05-15T14:16:15.955Z,8.73
2023-05-15T14:18:49.268Z,9.63
2023-05-15T14:21:19.285Z,11.48
2023-05-15T14:23:47.781Z,9.98
2023-05-15T14:26:17.628Z,9.73
2023-05-15T14:28:47.953Z,10.02
2023-05-15T14:31:18.498Z,10.02
2023-05-15T14:34:06.193Z,10.57
2023-05-15T14:36:34.253Z,11.43
2023-05-15T14:39:05.286Z,11.25
2023-05-15T14:41:35.488Z,10.63
2023-05-15T14:44:05.958Z,10.90
2023-05-15T14:46:38.519Z,9.38
2023-05-15T14:49:06.030Z,11.63
2023-05-15T14:51:35.622Z,12.52
2023-05-15T14:54:06.244Z,11.73
2023-05-15T14:56:34.293Z,13.68
2023-05-15T14:59:04.538Z,11.07
2023-05-15T15:01:37.754Z,10.15
2023-05-15T15:04:07.439Z,9.70
2023-05-15T15:06:36.246Z,10.52
2023-05-15T15:09:04.521Z,9.65
2023-05-15T15:11:32.247Z,8.45
2023-05-15T15:14:00.092Z,10.05
2023-05-15T15:16:27.860Z,9.38
2023-05-15T15:18:55.292Z,9.35
2023-05-15T15:21:23.945Z,9.57
2023-05-15T15:23:51.418Z,8.93
2023-05-15T15:26:19.107Z,8.75
2023-05-15T15:28:46.364Z,8.90
2023-05-15T15:31:14.670Z,8.27
2023-05-15T15:33:41.945Z,8.82
2023-05-15T15:36:09.688Z,8.23
2023-05-15T15:38:36.977Z,8.85
2023-05-15T15:41:05.822Z,7.95
2023-05-15T15:43:33.396Z,11.32
2023-05-15T15:46:03.962Z,10.48
2023-05-15T15:48:31.381Z,9.32
2023-05-15T15:50:59.110Z,9.43
2023-05-15T15:53:26.640Z,19.63
2023-05-15T15:55:54.398Z,18.65
2023-05-15T15:58:21.667Z,9.85
2023-05-15T16:00:49.712Z,10.02
2023-05-15T16:03:19.034Z,10.48
2023-05-15T16:05:46.850Z,13.90
2023-05-15T16:08:14.582Z,14.13
2023-05-15T16:10:45.026Z,16.73
2023-05-15T16:13:14.281Z,14.73
2023-05-15T16:15:42.108Z,18.42
2023-05-15T16:18:10.024Z,10.60
2023-05-15T16:20:40.011Z,11.05
2023-05-15T16:23:09.632Z,11.52
2023-05-15T16:25:38.914Z,12.20
2023-05-15T16:28:08.018Z,11.00
2023-05-15T16:30:48.287Z,12.13
2023-05-15T16:33:18.154Z,10.57
2023-05-15T16:35:46.486Z,11.27
2023-05-15T16:38:16.102Z,11.52
2023-05-15T16:40:45.680Z,11.88
2023-05-15T16:43:14.707Z,11.05
2023-05-15T16:45:47.483Z,11.88
2023-05-15T16:48:23.084Z,11.27
2023-05-15T16:50:53.059Z,11.32
2023-05-15T16:53:23.151Z,11.88
2023-05-15T16:55:53.082Z,11.82
2023-05-15T16:58:22.991Z,12.75
2023-05-15T17:00:51.384Z,12.60
2023-05-15T17:03:19.307Z,13.43
2023-05-15T17:05:47.595Z,13.18
2023-05-15T17:08:17.705Z,13.23
2023-05-15T17:10:49.554Z,13.75
2023-05-15T17:13:20.770Z,13.40
2023-05-15T17:15:51.563Z,13.10
2023-05-15T17:18:21.161Z,14.05
2023-05-15T17:20:49.064Z,12.77
2023-05-15T17:23:16.754Z,13.07
2023-05-15T17:25:44.908Z,13.20
2023-05-15T17:28:12.488Z,13.70
2023-05-15T17:30:40.315Z,13.85
2023-05-15T17:33:07.675Z,13.20
2023-05-15T17:35:35.358Z,13.25
2023-05-15T17:38:03.022Z,13.95
2023-05-15T17:40:30.932Z,13.55
2023-05-15T17:42:58.502Z,14.30
2023-05-15T17:45:28.238Z,14.40
2023-05-15T17:48:02.644Z,13.27
2023-05-15T17:50:30.411Z,14.10
2023-05-15T17:52:57.809Z,13.95
2023-05-15T17:55:25.739Z,14.85
2023-05-15T17:57:54.463Z,14.52
2023-05-15T18:00:24.372Z,13.07
2023-05-15T18:03:10.236Z,14.90
2023-05-15T18:05:39.381Z,14.40
2023-05-15T18:08:07.064Z,13.98
2023-05-15T18:10:34.724Z,15.55
2023-05-15T18:13:02.663Z,15.13
2023-05-15T18:15:35.402Z,15.07
2023-05-15T18:18:06.427Z,15.30
2023-05-15T18:20:34.701Z,14.82
2023-05-15T18:23:02.625Z,18.73
2023-05-15T18:25:30.800Z,16.77
2023-05-15T18:27:58.159Z,18.17
2023-05-15T18:30:25.923Z,17.70
2023-05-15T18:32:53.321Z,16.02
2023-05-15T18:35:21.600Z,14.98
2023-05-15T18:37:50.679Z,14.60
2023-05-15T18:40:19.030Z,14.50
2023-05-15T18:43:05.507Z,16.98
2023-05-15T18:45:33.289Z,15.63
2023-05-15T18:48:01.051Z,15.45
2023-05-15T18:50:28.850Z,15.20
2023-05-15T18:52:56.197Z,15.00
2023-05-15T18:55:26.970Z,14.10
2023-05-15T18:57:54.398Z,13.55
2023-05-15T19:00:36.418Z,14.32
2023-05-15T19:03:06.021Z,16.02
2023-05-15T19:05:34.419Z,15.25
2023-05-15T19:08:02.177Z,14.05
2023-05-15T19:10:30.745Z,15.27
2023-05-15T19:12:59.416Z,14.70
2023-05-15T19:15:27.137Z,14.05
2023-05-15T19:17:54.457Z,16.67
2023-05-15T19:20:29.011Z,31.98
2023-05-15T19:25:32.348Z,35.17
2023-05-15T19:28:03.680Z,17.65
2023-05-15T19:30:42.743Z,15.35
2023-05-15T19:33:14.198Z,14.18
2023-05-15T19:35:45.115Z,13.77
2023-05-15T19:38:14.113Z,13.93
2023-05-15T19:40:48.094Z,13.60
2023-05-15T19:43:16.544Z,12.52
2023-05-15T19:45:44.807Z,12.10
2023-05-15T19:48:12.603Z,12.52
2023-05-15T19:50:45.384Z,14.05
2023-05-15T19:53:14.498Z,17.10
2023-05-15T19:55:44.198Z,15.00
2023-05-15T19:58:22.304Z,12.63
2023-05-15T20:00:53.451Z,13.45
2023-05-15T20:03:22.931Z,12.40
2023-05-15T20:05:54.032Z,12.43
2023-05-15T20:08:23.036Z,12.90
2023-05-15T20:10:52.943Z,12.95
2023-05-15T20:13:21.572Z,12.15
2023-05-15T20:15:57.263Z,12.80
2023-05-15T20:18:34.899Z,12.60
2023-05-15T20:21:03.753Z,12.60
2023-05-15T20:23:37.288Z,12.55
2023-05-15T20:26:07.070Z,12.38
2023-05-15T20:28:43.704Z,11.85
2023-05-15T20:31:14.164Z,13.32
2023-05-15T20:33:43.454Z,10.85
2023-05-15T20:36:12.600Z,12.35
2023-05-15T20:38:45.141Z,10.80
2023-05-15T20:41:13.360Z,10.70
2023-05-15T20:43:42.311Z,11.48
2023-05-15T20:46:13.213Z,11.38
2023-05-15T20:49:06.388Z,10.43
2023-05-15T20:51:34.050Z,10.13
2023-05-15T20:54:01.675Z,10.23
2023-05-15T20:56:29.518Z,10.27
2023-05-15T20:58:59.632Z,11.85
2023-05-15T21:01:29.243Z,11.65
2023-05-15T21:03:57.106Z,11.48
2023-05-15T21:06:27.610Z,11.57
2023-05-15T21:08:55.335Z,12.45
2023-05-15T21:11:23.042Z,10.23
2023-05-15T21:13:50.376Z,11.93
2023-05-15T21:16:18.103Z,10.85
2023-05-15T21:18:45.638Z,10.52
2023-05-15T21:21:13.915Z,10.40
2023-05-15T21:23:41.501Z,10.82
2023-05-15T21:26:09.088Z,11.27
2023-05-15T21:28:36.545Z,10.55
2023-05-15T21:31:10.996Z,11.82
2023-05-15T21:33:38.440Z,11.38
2023-05-15T21:36:06.327Z,11.57
2023-05-15T21:38:36.362Z,12.65
2023-05-15T21:41:04.307Z,11.65
2023-05-15T21:43:31.808Z,11.15
2023-05-15T21:45:59.388Z,13.68
2023-05-15T21:48:26.713Z,14.60
2023-05-15T21:50:58.267Z,14.05
2023-05-15T21:53:25.950Z,15.02
2023-05-15T21:56:00.473Z,13.57
2023-05-15T21:58:28.064Z,12.15
2023-05-15T22:00:56.108Z,12.48
2023-05-15T22:03:24.032Z,12.38
2023-05-15T22:05:53.056Z,13.35
2023-05-15T22:08:21.303Z,11.35
2023-05-15T22:10:49.814Z,12.98
2023-05-15T22:13:17.222Z,14.32
2023-05-15T22:15:44.918Z,12.75
2023-05-15T22:18:13.611Z,12.23
2023-05-15T22:20:42.947Z,13.05
2023-05-15T22:23:10.609Z,11.98
2023-05-15T22:25:38.207Z,10.82
2023-05-15T22:28:05.652Z,10.27
2023-05-15T22:30:33.371Z,10.20
2023-05-15T22:33:00.716Z,9.45
2023-05-15T22:35:28.650Z,10.68
2023-05-15T22:37:56.134Z,10.18
2023-05-15T22:40:24.054Z,10.13
2023-05-15T22:42:52.678Z,9.88
2023-05-15T22:45:20.561Z,9.90
2023-05-15T22:47:49.322Z,10.38
2023-05-15T22:50:17.224Z,10.02
2023-05-15T22:52:44.742Z,9.40
2023-05-15T22:55:13.192Z,9.80
2023-05-15T22:57:42.903Z,9.75
2023-05-15T23:00:11.467Z,10.10
2023-05-15T23:02:40.103Z,10.13
2023-05-15T23:05:09.218Z,10.60
2023-05-15T23:07:38.188Z,9.93
2023-05-15T23:10:06.940Z,10.30
2023-05-15T23:12:34.284Z,10.73
2023-05-15T23:15:03.899Z,9.82
2023-05-15T23:17:31.368Z,9.15
2023-05-15T23:20:01.022Z,9.30
2023-05-15T23:22:28.791Z,9.20
2023-05-15T23:24:56.635Z,8.90
2023-05-15T23:27:24.149Z,9.30
2023-05-15T23:29:51.818Z,9.75
2023-05-15T23:32:19.227Z,10.00
2023-05-15T23:34:47.120Z,9.77
2023-05-15T23:37:14.506Z,9.15
2023-05-15T23:39:42.187Z,9.20
2023-05-15T23:42:12.695Z,9.80
2023-05-15T23:44:41.240Z,11.65
2023-05-15T23:47:08.775Z,10.15
2023-05-15T23:49:36.655Z,12.13
2023-05-15T23:52:04.123Z,11.07
2023-05-15T23:54:31.841Z,11.75
2023-05-15T23:56:59.073Z,11.48
2023-05-15T23:59:26.706Z,11.93
